Allen, Nebraska
Current Conditions -  °F | °C
As of 7:35 PM on Wednesday 26 Nov 2014 (Local Time) from KLCG Reporting Station
Clear Clear  
Wind Chill:   Ceiling: Unl
Heat Index: 17°   Visibility: 10mi
Dew Point: 12°   Wind: 12mph
Humidity: 82%   Direction: 330°NNW
Pressure: 30.41"   Gusts: NA
Location:  42.42°N, 96.85°W
Report Text: KLCG 270135Z AUTO 33010KT 10SM CLR M08/M11 A3041 RMK AO2 T10851111
Loading
Personal Weather Stations






























Interactive Weather Map New forecast layout! Learn more

10-Day Weather Forecast

Advertisements
Track Severe Weather on mobile